Oosterschelde — PGNP — position and weather

sailwx.info

Track history (hours):
 
Tides and Currents Weather Stations Pressure Air Temp Water Temp Dewpoint Dewpoint Depression Visibility Wind Speed Wind Dir Waves Ship Positions

Oosterschelde (Netherlands)

Ship's website: http://www.oosterschelde.nl/indexuk.htm

Last reported at 2018-Jun-16 02:39 UTC. Time now 2018-Jun-22 01:35 UTC.
Position N 54°19' E 010°09'.

Length 49 m; draft 2.9 m.

Type: Sailing vessel. MMSI: 246010985.

Date/timePositionNaut miles runAvg speedWind from/ knotsBaromVisibWave heightAir tempDewpointWater temp
2018-Jun-16 02:39N 54°19' E 010°09'0 0.0
2018-Jun-16 02:24N 54°19' E 010°09'0 0.0
2018-Jun-16 02:00N 54°19' E 010°09'0 0.0
2018-Jun-16 01:24N 54°19' E 010°09'13 0.7
2018-Jun-15 07:33N 54°22' E 009°47'0 5.7
2018-Jun-15 07:30N 54°21' E 009°47'3 5.8
2018-Jun-15 07:00N 54°20' E 009°43'3 5.2
2018-Jun-15 06:30N 54°18' E 009°41'3 5.3
2018-Jun-15 06:00N 54°16' E 009°37'3 5.6
2018-Jun-15 05:30N 54°13' E 009°35'3 5.6
2018-Jun-15 05:00N 54°11' E 009°31'3 5.6
2018-Jun-15 04:30N 54°10' E 009°27'3 5.6
2018-Jun-15 04:00N 54°09' E 009°23'5 5.2
2018-Jun-15 03:07N 54°05' E 009°19'1 6.0
2018-Jun-15 02:59N 54°04' E 009°19'3 5.7
2018-Jun-15 02:29N 54°01' E 009°18'3 5.6
2018-Jun-15 02:01N 53°59' E 009°17'3 5.7
2018-Jun-15 01:30N 53°57' E 009°14'3 5.7
2018-Jun-15 00:59N 53°55' E 009°10'1 2.7
2018-Jun-15 00:29N 53°54' E 009°09'1 1.2
2018-Jun-15 00:00N 53°53' E 009°10'2 3.6
2018-Jun-14 23:30N 53°53' E 009°07'4 8.8
2018-Jun-14 23:00N 53°51' E 008°60'4 9.0
2018-Jun-14 22:30N 53°50' E 008°52'4 8.3
2018-Jun-14 22:00N 53°51' E 008°45'2 2.7
2018-Jun-14 21:22N 53°53' E 008°44'0 0.1
2018-Jun-14 20:58N 53°53' E 008°44'0 0.1
2018-Jun-14 20:28N 53°53' E 008°44'0 0.1
2018-Jun-14 19:58N 53°53' E 008°44'0 0.0
2018-Jun-14 19:22N 53°53' E 008°44'0 0.0
2018-Jun-14 18:52N 53°53' E 008°44'0 0.0
2018-Jun-14 18:28N 53°53' E 008°44'0 0.9
2018-Jun-14 18:00N 53°53' E 008°43'1 2.7
2018-Jun-14 17:30N 53°54' E 008°41'1 2.1
2018-Jun-14 17:00N 53°55' E 008°41'1 2.4
2018-Jun-14 16:30N 53°56' E 008°39'8 5.8
2018-Jun-14 15:05N 53°59' E 008°26'1 6.8
2018-Jun-14 15:00N 53°59' E 008°25'110 8.5
2018-Jun-14 02:03N 53°31' E 005°25'0 7.5
2018-Jun-14 02:01N 53°31' E 005°25'4 7.2
2018-Jun-14 01:30N 53°29' E 005°19'4 7.0
2018-Jun-14 01:00N 53°28' E 005°14'4 7.1
2018-Jun-14 00:30N 53°27' E 005°08'4 7.1
2018-Jun-14 00:00N 53°26' E 005°02'4 7.1
2018-Jun-13 23:30N 53°25' E 004°57'3 5.3
2018-Jun-13 23:00N 53°22' E 004°55'3 6.2
2018-Jun-13 22:31N 53°19' E 004°55'3 5.5
2018-Jun-13 22:00N 53°18' E 004°51'14 5.0
2018-Jun-13 19:13N 53°07' E 004°36'1 6.2
2018-Jun-13 18:59N 53°05' E 004°36'3 6.6
2018-Jun-13 18:29N 53°02' E 004°35'3 5.8
2018-Jun-13 17:57N 52°59' E 004°33'3 5.9
2018-Jun-13 17:29N 52°57' E 004°31'3 6.0
2018-Jun-13 17:00N 52°54' E 004°30'3 5.8
2018-Jun-13 16:29N 52°51' E 004°30'3 5.4
2018-Jun-13 15:59N 52°48' E 004°29'3 4.9
2018-Jun-13 15:28N 52°46' E 004°29'3 6.0
2018-Jun-13 14:59N 52°43' E 004°28'4 7.9
2018-Jun-13 14:27N 52°39' E 004°28'3 7.7
2018-Jun-13 14:00N 52°35' E 004°28'4 7.5
2018-Jun-13 13:30N 52°32' E 004°27'3 6.9
2018-Jun-13 13:01N 52°28' E 004°25'3 6.3
2018-Jun-13 12:31N 52°25' E 004°24'3 5.6
2018-Jun-13 12:01N 52°23' E 004°22'3 5.2
2018-Jun-13 11:31N 52°20' E 004°21'2 4.8
2018-Jun-13 11:01N 52°18' E 004°20'2 4.7
2018-Jun-13 10:31N 52°16' E 004°19'2 4.8
2018-Jun-13 10:00N 52°13' E 004°18'2 4.3
2018-Jun-13 09:30N 52°11' E 004°17'2 4.3
2018-Jun-13 09:01N 52°09' E 004°16'2 3.9
2018-Jun-13 08:31N 52°07' E 004°15'1 2.6
2018-Jun-13 08:00N 52°06' E 004°16'0 0.0
2018-Jun-13 07:30N 52°06' E 004°16'0 0.0
2018-Jun-13 06:54N 52°06' E 004°16'0 0.0
2018-Jun-13 06:27N 52°06' E 004°16'0 0.0
2018-Jun-13 05:57N 52°06' E 004°16'0 0.0
2018-Jun-13 05:30N 52°06' E 004°16'0 0.0
2018-Jun-13 05:00N 52°06' E 004°16'0 0.0
2018-Jun-13 04:30N 52°06' E 004°16'0 0.0
2018-Jun-13 03:57N 52°06' E 004°16'0 0.0
2018-Jun-13 03:27N 52°06' E 004°16'0 0.0
2018-Jun-13 02:57N 52°06' E 004°16'0 0.0
2018-Jun-13 02:30N 52°06' E 004°16'0 0.0
2018-Jun-13 02:00N 52°06' E 004°16'0 0.0
2018-Jun-13 01:27N 52°06' E 004°16'0 0.0
2018-Jun-13 00:57N 52°06' E 004°16'0 0.0
2018-Jun-13 00:30N 52°06' E 004°16'0 0.0
2018-Jun-13 00:00N 52°06' E 004°16'0 0.0
2018-Jun-12 23:30N 52°06' E 004°16'0 0.0
2018-Jun-12 23:00N 52°06' E 004°16'0 0.0
2018-Jun-12 22:30N 52°06' E 004°16'0 0.0
2018-Jun-12 21:57N 52°06' E 004°16'0 0.0
2018-Jun-12 21:21N 52°06' E 004°16'0 0.0
2018-Jun-12 20:54N 52°06' E 004°16'0 0.0
2018-Jun-12 20:30N 52°06' E 004°16'0 0.0
2018-Jun-12 19:57N 52°06' E 004°16'0 0.0
2018-Jun-12 19:27N 52°06' E 004°16'0 0.0
2018-Jun-12 19:00N 52°06' E 004°16'0 0.0
2018-Jun-12 18:30N 52°06' E 004°16'0 0.0
2018-Jun-12 18:00N 52°06' E 004°16'0 0.0
2018-Jun-12 17:27N 52°06' E 004°16'0 0.0
2018-Jun-12 17:00N 52°06' E 004°16'0 0.0
2018-Jun-12 16:30N 52°06' E 004°16'0 0.0
2018-Jun-12 16:00N 52°06' E 004°16'0 0.0
2018-Jun-12 15:27N 52°06' E 004°16'0 0.0
2018-Jun-12 14:57N 52°06' E 004°16'0 0.0
2018-Jun-12 14:30N 52°06' E 004°16'0 0.0
2018-Jun-12 13:57N 52°06' E 004°16'0 0.0
2018-Jun-12 13:27N 52°06' E 004°16'0 0.0
2018-Jun-12 13:00N 52°06' E 004°16'0 0.0
2018-Jun-12 12:21N 52°06' E 004°16'0 0.0
2018-Jun-12 11:51N 52°06' E 004°16'0 0.0
2018-Jun-12 11:27N 52°06' E 004°16'0 0.0
2018-Jun-12 10:57N 52°06' E 004°16'0 0.0
2018-Jun-12 10:30N 52°06' E 004°16'0 0.0
2018-Jun-12 09:57N 52°06' E 004°16'0 0.0
2018-Jun-12 09:27N 52°06' E 004°16'0 0.0
2018-Jun-12 08:57N 52°06' E 004°16'0 0.0
2018-Jun-12 08:30N 52°06' E 004°16'0 0.0
2018-Jun-12 08:00N 52°06' E 004°16'0 0.0
2018-Jun-12 07:30N 52°06' E 004°16'0 0.0
2018-Jun-12 07:00N 52°06' E 004°16'0 0.0
2018-Jun-12 05:57N 52°06' E 004°16'0 0.0
2018-Jun-12 05:30N 52°06' E 004°16'0 0.0
2018-Jun-12 05:00N 52°06' E 004°16'0 0.0
2018-Jun-12 04:12N 52°06' E 004°16'0 0.0
2018-Jun-12 03:57N 52°06' E 004°16'0 0.0
2018-Jun-12 03:30N 52°06' E 004°16'0 0.0
2018-Jun-12 03:00N 52°06' E 004°16'0 0.0
2018-Jun-12 02:30N 52°06' E 004°16'0 0.0
2018-Jun-12 01:57N 52°06' E 004°16'0 0.0
2018-Jun-12 01:30N 52°06' E 004°16'0 0.0
2018-Jun-12 00:57N 52°06' E 004°16'0 0.0
2018-Jun-12 00:27N 52°06' E 004°16'0 0.0
2018-Jun-12 00:00N 52°06' E 004°16'0 0.0
2018-Jun-11 23:18N 52°06' E 004°16'0 0.0
2018-Jun-11 23:00N 52°06' E 004°16'0 0.0
2018-Jun-11 22:30N 52°06' E 004°16'0 0.0
2018-Jun-11 21:57N 52°06' E 004°16'0 0.0
2018-Jun-11 21:27N 52°06' E 004°16'0 0.0
2018-Jun-11 21:00N 52°06' E 004°16'0 0.0
2018-Jun-11 20:30N 52°06' E 004°16'0 0.0
2018-Jun-11 20:00N 52°06' E 004°16'0 0.0
2018-Jun-11 19:30N 52°06' E 004°16'0 0.0
2018-Jun-11 19:00N 52°06' E 004°16'0 0.0
2018-Jun-11 17:30N 52°06' E 004°16'0 0.0
2018-Jun-11 17:00N 52°06' E 004°16'0 0.0
2018-Jun-11 16:30N 52°06' E 004°16'0 0.0
2018-Jun-11 15:00N 52°06' E 004°16'0 0.0
2018-Jun-11 14:24N 52°06' E 004°16'0 0.1
2018-Jun-11 14:00N 52°06' E 004°16'2 3.4
2018-Jun-11 13:30N 52°08' E 004°15'4 7.3
2018-Jun-11 13:00N 52°10' E 004°10'4 7.3
2018-Jun-11 12:30N 52°11' E 004°05'1 2.3
2018-Jun-11 12:00N 52°12' E 004°04'3 6.5
2018-Jun-11 11:30N 52°13' E 004°09'3 6.0
2018-Jun-11 11:00N 52°13' E 004°14'3 6.0
2018-Jun-11 10:30N 52°13' E 004°19'3 5.3
2018-Jun-11 10:00N 52°15' E 004°23'2 4.2
2018-Jun-11 09:30N 52°16' E 004°25'2 4.0
2018-Jun-11 09:00N 52°18' E 004°26'2 4.0
2018-Jun-11 08:30N 52°20' E 004°28'3 5.1
2018-Jun-11 08:00N 52°22' E 004°28'3 5.5
2018-Jun-11 07:30N 52°25' E 004°29'3 5.3
2018-Jun-11 07:00N 52°28' E 004°30'2 3.6
2018-Jun-11 06:30N 52°29' E 004°30'2 4.2
2018-Jun-11 06:00N 52°31' E 004°28'3 6.0
2018-Jun-11 05:27N 52°33' E 004°24'6 7.2
2018-Jun-11 04:40N 52°37' E 004°16'1 7.1
2018-Jun-11 04:30N 52°37' E 004°14'4 7.1
2018-Jun-11 04:00N 52°37' E 004°09'4 7.2
2018-Jun-11 03:27N 52°35' E 004°03'4 7.4
2018-Jun-11 02:55N 52°33' E 003°58'3 7.1
2018-Jun-11 02:30N 52°30' E 003°55'4 7.6
2018-Jun-11 02:00N 52°27' E 003°53'4 7.1
2018-Jun-11 01:30N 52°23' E 003°50'4 7.1
2018-Jun-11 01:00N 52°22' E 003°45'4 7.3
2018-Jun-11 00:30N 52°20' E 003°40'3 7.0
2018-Jun-11 00:00N 52°19' E 003°35'4 7.6
2018-Jun-10 23:30N 52°17' E 003°30'4 7.8
2018-Jun-10 23:00N 52°15' E 003°24'4 7.6
2018-Jun-10 22:29N 52°13' E 003°19'4 7.3
2018-Jun-10 21:59N 52°10' E 003°14'3 7.1
2018-Jun-10 21:30N 52°08' E 003°10'3 6.6
2018-Jun-10 21:00N 52°06' E 003°06'3 6.0
2018-Jun-10 20:30N 52°03' E 003°03'3 6.0
2018-Jun-10 20:00N 52°01' E 002°60'3 5.8
2018-Jun-10 19:30N 51°59' E 002°57'3 5.2
2018-Jun-10 19:00N 51°57' E 002°54'9 3.9
2018-Jun-10 16:48N 51°49' E 002°48'10 6.3
2018-Jun-10 15:18N 51°46' E 003°03'3 7.1
2018-Jun-10 14:53N 51°47' E 002°58'9 7.3
2018-Jun-10 13:35N 51°47' E 002°43'10 7.8
2018-Jun-10 12:18N 51°48' E 002°27'3 7.9
2018-Jun-10 11:57N 51°48' E 002°23'5 7.5
2018-Jun-10 11:19N 51°48' E 002°15'2 7.2
2018-Jun-10 10:59N 51°48' E 002°11'6 2.9
2018-Jun-10 08:57N 51°44' E 002°17'9 4.7
2018-Jun-10 07:03N 51°39' E 002°30'0 5.1
2018-Jun-10 06:58N 51°38' E 002°29'2 4.8
2018-Jun-10 06:30N 51°37' E 002°27'3 4.7
2018-Jun-10 05:58N 51°35' E 002°25'3 4.2
2018-Jun-10 05:21N 51°33' E 002°22'1 3.8
2018-Jun-10 04:58N 51°31' E 002°21'2 3.9
2018-Jun-10 04:30N 51°30' E 002°19'2 3.8
2018-Jun-10 03:57N 51°28' E 002°17'2 3.8
2018-Jun-10 03:30N 51°27' E 002°16'2 3.9
2018-Jun-10 03:00N 51°25' E 002°14'2 3.8
2018-Jun-10 02:28N 51°24' E 002°12'2 4.0
2018-Jun-10 02:00N 51°22' E 002°11'2 4.4
2018-Jun-10 01:30N 51°20' E 002°09'2 4.8
2018-Jun-10 01:00N 51°18' E 002°07'2 4.9
2018-Jun-10 00:30N 51°16' E 002°05'3 5.2
2018-Jun-10 00:00N 51°14' E 002°02'3 5.3
2018-Jun-09 23:30N 51°12' E 001°59'3 5.9
2018-Jun-09 23:00N 51°11' E 001°55'4 7.0
2018-Jun-09 22:29N 51°09' E 001°50'4 7.8
2018-Jun-09 22:00N 51°07' E 001°45'4 8.2
2018-Jun-09 21:30N 51°04' E 001°40'7 8.3
2018-Jun-09 20:42N 50°59' E 001°32'2 8.4
2018-Jun-09 20:28N 50°58' E 001°30'4 8.1
2018-Jun-09 20:00N 50°55' E 001°27'61 4.7
2018-Jun-09 07:14N 50°18' E 000°11'1 4.1
2018-Jun-09 06:53N 50°18' E 000°09'4 5.6
2018-Jun-09 06:13N 50°17' E 000°03'5 5.6
2018-Jun-09 05:16N 50°15' W 000°05'2 6.1
2018-Jun-09 04:57N 50°14' W 000°08'4 6.4
2018-Jun-09 04:23N 50°13' W 000°13'3 6.7
2018-Jun-09 04:00N 50°12' W 000°17'3 7.0
2018-Jun-09 03:30N 50°11' W 000°22'3 7.0
2018-Jun-09 03:00N 50°10' W 000°27'4 7.3
2018-Jun-09 02:30N 50°08' W 000°32'3 7.0
2018-Jun-09 02:00N 50°07' W 000°37'3 6.6
2018-Jun-09 01:30N 50°07' W 000°42'2 4.5
2018-Jun-09 01:00N 50°06' W 000°46'2 3.8
2018-Jun-09 00:30N 50°06' W 000°49'2 3.6
2018-Jun-09 00:00N 50°05' W 000°51'2 3.5
2018-Jun-08 23:27N 50°05' W 000°54'2 4.0
2018-Jun-08 23:00N 50°04' W 000°57'2 3.8
2018-Jun-08 22:30N 50°04' W 000°60'2 3.9
2018-Jun-08 22:00N 50°03' W 001°02'2 4.1
2018-Jun-08 21:30N 50°02' W 001°06'2 4.7
2018-Jun-08 21:00N 50°01' W 001°09'2 4.8
2018-Jun-08 20:30N 50°01' W 001°13'3 5.0
2018-Jun-08 20:00N 50°00' W 001°16'3 5.4
2018-Jun-08 19:30N 49°59' W 001°20'3 6.1
2018-Jun-08 19:00N 49°58' W 001°25'3 6.5
2018-Jun-08 18:30N 49°57' W 001°29'3 6.7
2018-Jun-08 18:00N 49°55' W 001°34'3 6.4
2018-Jun-08 17:30N 49°54' W 001°39'3 5.2
2018-Jun-08 17:00N 49°53' W 001°42'2 3.5
2018-Jun-08 16:30N 49°51' W 001°43'2 4.3
2018-Jun-08 16:00N 49°49' W 001°44'2 3.2
2018-Jun-08 15:30N 49°49' W 001°47'3 6.8
2018-Jun-08 15:00N 49°52' W 001°50'2 4.0
2018-Jun-08 14:30N 49°51' W 001°53'4 7.6
2018-Jun-08 14:00N 49°47' W 001°55'50 5.1
2018-Jun-08 04:05N 49°37' W 003°11'1 7.5
2018-Jun-08 03:59N 49°37' W 003°12'72 7.7
2018-Jun-07 18:38N 48°48' W 004°33'1 7.3
2018-Jun-07 18:30N 48°47' W 004°34'4 7.2
2018-Jun-07 18:00N 48°44' W 004°37'3 7.0
2018-Jun-07 17:30N 48°41' W 004°40'2 3.7
2018-Jun-07 17:00N 48°40' W 004°42'0 0.9
2018-Jun-07 16:30N 48°40' W 004°42'1 2.9
2018-Jun-07 16:00N 48°39' W 004°40'2 4.0
2018-Jun-07 15:30N 48°38' W 004°39'3 0.3
2018-Jun-07 06:56N 48°37' W 004°35'2 4.6
2018-Jun-07 06:31N 48°37' W 004°38'2 4.6
2018-Jun-07 06:01N 48°38' W 004°41'3 5.2
2018-Jun-07 05:31N 48°39' W 004°45'3 5.6
2018-Jun-07 05:00N 48°40' W 004°49'3 5.6
2018-Jun-07 04:31N 48°41' W 004°53'2 5.0
2018-Jun-07 04:00N 48°41' W 004°56'2 4.8
2018-Jun-07 03:31N 48°42' W 004°60'2 4.7
2018-Jun-07 03:00N 48°43' W 005°03'2 4.1
2018-Jun-07 02:31N 48°44' W 005°05'2 4.2
2018-Jun-07 02:00N 48°45' W 005°08'2 3.6
2018-Jun-07 01:29N 48°46' W 005°11'2 3.3
2018-Jun-07 01:00N 48°46' W 005°13'2 3.4
2018-Jun-07 00:27N 48°47' W 005°16'4 4.1
2018-Jun-06 23:31N 48°48' W 005°21'0 4.5
2018-Jun-06 23:26N 48°48' W 005°22'36 6.2
2018-Jun-06 17:33N 48°19' W 005°55'  
Track history (hours):
 
Tides and Currents Weather Stations Pressure Air Temp Water Temp Dewpoint Dewpoint Depression Visibility Wind Speed Wind Dir Waves Ship Positions

Oosterschelde (Netherlands)

Ship's website: http://www.oosterschelde.nl/indexuk.htm

Last reported at 2018-Jun-16 02:39 UTC. Time now 2018-Jun-22 01:35 UTC.
Position N 54°19' E 010°09'.

Length 49 m; draft 2.9 m.

Type: Sailing vessel. MMSI: 246010985.

Date/timePositionNaut miles runAvg speedWind from/ knotsBaromVisibWave heightAir tempDewpointWater temp
2018-Jun-16 02:39N 54°19' E 010°09'0 0.0
2018-Jun-16 02:24N 54°19' E 010°09'0 0.0
2018-Jun-16 02:00N 54°19' E 010°09'0 0.0
2018-Jun-16 01:24N 54°19' E 010°09'13 0.7
2018-Jun-15 07:33N 54°22' E 009°47'0 5.7
2018-Jun-15 07:30N 54°21' E 009°47'3 5.8
2018-Jun-15 07:00N 54°20' E 009°43'3 5.2
2018-Jun-15 06:30N 54°18' E 009°41'3 5.3
2018-Jun-15 06:00N 54°16' E 009°37'3 5.6
2018-Jun-15 05:30N 54°13' E 009°35'3 5.6
2018-Jun-15 05:00N 54°11' E 009°31'3 5.6
2018-Jun-15 04:30N 54°10' E 009°27'3 5.6
2018-Jun-15 04:00N 54°09' E 009°23'5 5.2
2018-Jun-15 03:07N 54°05' E 009°19'1 6.0
2018-Jun-15 02:59N 54°04' E 009°19'3 5.7
2018-Jun-15 02:29N 54°01' E 009°18'3 5.6
2018-Jun-15 02:01N 53°59' E 009°17'3 5.7
2018-Jun-15 01:30N 53°57' E 009°14'3 5.7
2018-Jun-15 00:59N 53°55' E 009°10'1 2.7
2018-Jun-15 00:29N 53°54' E 009°09'1 1.2
2018-Jun-15 00:00N 53°53' E 009°10'2 3.6
2018-Jun-14 23:30N 53°53' E 009°07'4 8.8
2018-Jun-14 23:00N 53°51' E 008°60'4 9.0
2018-Jun-14 22:30N 53°50' E 008°52'4 8.3
2018-Jun-14 22:00N 53°51' E 008°45'2 2.7
2018-Jun-14 21:22N 53°53' E 008°44'0 0.1
2018-Jun-14 20:58N 53°53' E 008°44'0 0.1
2018-Jun-14 20:28N 53°53' E 008°44'0 0.1
2018-Jun-14 19:58N 53°53' E 008°44'0 0.0
2018-Jun-14 19:22N 53°53' E 008°44'0 0.0
2018-Jun-14 18:52N 53°53' E 008°44'0 0.0
2018-Jun-14 18:28N 53°53' E 008°44'0 0.9
2018-Jun-14 18:00N 53°53' E 008°43'1 2.7
2018-Jun-14 17:30N 53°54' E 008°41'1 2.1
2018-Jun-14 17:00N 53°55' E 008°41'1 2.4
2018-Jun-14 16:30N 53°56' E 008°39'8 5.8
2018-Jun-14 15:05N 53°59' E 008°26'1 6.8
2018-Jun-14 15:00N 53°59' E 008°25'110 8.5
2018-Jun-14 02:03N 53°31' E 005°25'0 7.5
2018-Jun-14 02:01N 53°31' E 005°25'4 7.2
2018-Jun-14 01:30N 53°29' E 005°19'4 7.0
2018-Jun-14 01:00N 53°28' E 005°14'4 7.1
2018-Jun-14 00:30N 53°27' E 005°08'4 7.1
2018-Jun-14 00:00N 53°26' E 005°02'4 7.1
2018-Jun-13 23:30N 53°25' E 004°57'3 5.3
2018-Jun-13 23:00N 53°22' E 004°55'3 6.2
2018-Jun-13 22:31N 53°19' E 004°55'3 5.5
2018-Jun-13 22:00N 53°18' E 004°51'14 5.0
2018-Jun-13 19:13N 53°07' E 004°36'1 6.2
2018-Jun-13 18:59N 53°05' E 004°36'3 6.6
2018-Jun-13 18:29N 53°02' E 004°35'3 5.8
2018-Jun-13 17:57N 52°59' E 004°33'3 5.9
2018-Jun-13 17:29N 52°57' E 004°31'3 6.0
2018-Jun-13 17:00N 52°54' E 004°30'3 5.8
2018-Jun-13 16:29N 52°51' E 004°30'3 5.4
2018-Jun-13 15:59N 52°48' E 004°29'3 4.9
2018-Jun-13 15:28N 52°46' E 004°29'3 6.0
2018-Jun-13 14:59N 52°43' E 004°28'4 7.9
2018-Jun-13 14:27N 52°39' E 004°28'3 7.7
2018-Jun-13 14:00N 52°35' E 004°28'4 7.5
2018-Jun-13 13:30N 52°32' E 004°27'3 6.9
2018-Jun-13 13:01N 52°28' E 004°25'3 6.3
2018-Jun-13 12:31N 52°25' E 004°24'3 5.6
2018-Jun-13 12:01N 52°23' E 004°22'3 5.2
2018-Jun-13 11:31N 52°20' E 004°21'2 4.8
2018-Jun-13 11:01N 52°18' E 004°20'2 4.7
2018-Jun-13 10:31N 52°16' E 004°19'2 4.8
2018-Jun-13 10:00N 52°13' E 004°18'2 4.3
2018-Jun-13 09:30N 52°11' E 004°17'2 4.3
2018-Jun-13 09:01N 52°09' E 004°16'2 3.9
2018-Jun-13 08:31N 52°07' E 004°15'1 2.6
2018-Jun-13 08:00N 52°06' E 004°16'0 0.0
2018-Jun-13 07:30N 52°06' E 004°16'0 0.0
2018-Jun-13 06:54N 52°06' E 004°16'0 0.0
2018-Jun-13 06:27N 52°06' E 004°16'0 0.0
2018-Jun-13 05:57N 52°06' E 004°16'0 0.0
2018-Jun-13 05:30N 52°06' E 004°16'0 0.0
2018-Jun-13 05:00N 52°06' E 004°16'0 0.0
2018-Jun-13 04:30N 52°06' E 004°16'0 0.0
2018-Jun-13 03:57N 52°06' E 004°16'0 0.0
2018-Jun-13 03:27N 52°06' E 004°16'0 0.0
2018-Jun-13 02:57N 52°06' E 004°16'0 0.0
2018-Jun-13 02:30N 52°06' E 004°16'0 0.0
2018-Jun-13 02:00N 52°06' E 004°16'0 0.0
2018-Jun-13 01:27N 52°06' E 004°16'0 0.0
2018-Jun-13 00:57N 52°06' E 004°16'0 0.0
2018-Jun-13 00:30N 52°06' E 004°16'0 0.0
2018-Jun-13 00:00N 52°06' E 004°16'0 0.0
2018-Jun-12 23:30N 52°06' E 004°16'0 0.0
2018-Jun-12 23:00N 52°06' E 004°16'0 0.0
2018-Jun-12 22:30N 52°06' E 004°16'0 0.0
2018-Jun-12 21:57N 52°06' E 004°16'0 0.0
2018-Jun-12 21:21N 52°06' E 004°16'0 0.0
2018-Jun-12 20:54N 52°06' E 004°16'0 0.0
2018-Jun-12 20:30N 52°06' E 004°16'0 0.0
2018-Jun-12 19:57N 52°06' E 004°16'0 0.0
2018-Jun-12 19:27N 52°06' E 004°16'0 0.0
2018-Jun-12 19:00N 52°06' E 004°16'0 0.0
2018-Jun-12 18:30N 52°06' E 004°16'0 0.0
2018-Jun-12 18:00N 52°06' E 004°16'0 0.0
2018-Jun-12 17:27N 52°06' E 004°16'0 0.0
2018-Jun-12 17:00N 52°06' E 004°16'0 0.0
2018-Jun-12 16:30N 52°06' E 004°16'0 0.0
2018-Jun-12 16:00N 52°06' E 004°16'0 0.0
2018-Jun-12 15:27N 52°06' E 004°16'0 0.0
2018-Jun-12 14:57N 52°06' E 004°16'0 0.0
2018-Jun-12 14:30N 52°06' E 004°16'0 0.0
2018-Jun-12 13:57N 52°06' E 004°16'0 0.0
2018-Jun-12 13:27N 52°06' E 004°16'0 0.0
2018-Jun-12 13:00N 52°06' E 004°16'0 0.0
2018-Jun-12 12:21N 52°06' E 004°16'0 0.0
2018-Jun-12 11:51N 52°06' E 004°16'0 0.0
2018-Jun-12 11:27N 52°06' E 004°16'0 0.0
2018-Jun-12 10:57N 52°06' E 004°16'0 0.0
2018-Jun-12 10:30N 52°06' E 004°16'0 0.0
2018-Jun-12 09:57N 52°06' E 004°16'0 0.0
2018-Jun-12 09:27N 52°06' E 004°16'0 0.0
2018-Jun-12 08:57N 52°06' E 004°16'0 0.0
2018-Jun-12 08:30N 52°06' E 004°16'0 0.0
2018-Jun-12 08:00N 52°06' E 004°16'0 0.0
2018-Jun-12 07:30N 52°06' E 004°16'0 0.0
2018-Jun-12 07:00N 52°06' E 004°16'0 0.0
2018-Jun-12 05:57N 52°06' E 004°16'0 0.0
2018-Jun-12 05:30N 52°06' E 004°16'0 0.0
2018-Jun-12 05:00N 52°06' E 004°16'0 0.0
2018-Jun-12 04:12N 52°06' E 004°16'0 0.0
2018-Jun-12 03:57N 52°06' E 004°16'0 0.0
2018-Jun-12 03:30N 52°06' E 004°16'0 0.0
2018-Jun-12 03:00N 52°06' E 004°16'0 0.0
2018-Jun-12 02:30N 52°06' E 004°16'0 0.0
2018-Jun-12 01:57N 52°06' E 004°16'0 0.0
2018-Jun-12 01:30N 52°06' E 004°16'0 0.0
2018-Jun-12 00:57N 52°06' E 004°16'0 0.0
2018-Jun-12 00:27N 52°06' E 004°16'0 0.0
2018-Jun-12 00:00N 52°06' E 004°16'0 0.0
2018-Jun-11 23:18N 52°06' E 004°16'0 0.0
2018-Jun-11 23:00N 52°06' E 004°16'0 0.0
2018-Jun-11 22:30N 52°06' E 004°16'0 0.0
2018-Jun-11 21:57N 52°06' E 004°16'0 0.0
2018-Jun-11 21:27N 52°06' E 004°16'0 0.0
2018-Jun-11 21:00N 52°06' E 004°16'0 0.0
2018-Jun-11 20:30N 52°06' E 004°16'0 0.0
2018-Jun-11 20:00N 52°06' E 004°16'0 0.0
2018-Jun-11 19:30N 52°06' E 004°16'0 0.0
2018-Jun-11 19:00N 52°06' E 004°16'0 0.0
2018-Jun-11 17:30N 52°06' E 004°16'0 0.0
2018-Jun-11 17:00N 52°06' E 004°16'0 0.0
2018-Jun-11 16:30N 52°06' E 004°16'0 0.0
2018-Jun-11 15:00N 52°06' E 004°16'0 0.0
2018-Jun-11 14:24N 52°06' E 004°16'0 0.1
2018-Jun-11 14:00N 52°06' E 004°16'2 3.4
2018-Jun-11 13:30N 52°08' E 004°15'4 7.3
2018-Jun-11 13:00N 52°10' E 004°10'4 7.3
2018-Jun-11 12:30N 52°11' E 004°05'1 2.3
2018-Jun-11 12:00N 52°12' E 004°04'3 6.5
2018-Jun-11 11:30N 52°13' E 004°09'3 6.0
2018-Jun-11 11:00N 52°13' E 004°14'3 6.0
2018-Jun-11 10:30N 52°13' E 004°19'3 5.3
2018-Jun-11 10:00N 52°15' E 004°23'2 4.2
2018-Jun-11 09:30N 52°16' E 004°25'2 4.0
2018-Jun-11 09:00N 52°18' E 004°26'2 4.0
2018-Jun-11 08:30N 52°20' E 004°28'3 5.1
2018-Jun-11 08:00N 52°22' E 004°28'3 5.5
2018-Jun-11 07:30N 52°25' E 004°29'3 5.3
2018-Jun-11 07:00N 52°28' E 004°30'2 3.6
2018-Jun-11 06:30N 52°29' E 004°30'2 4.2
2018-Jun-11 06:00N 52°31' E 004°28'3 6.0
2018-Jun-11 05:27N 52°33' E 004°24'6 7.2
2018-Jun-11 04:40N 52°37' E 004°16'1 7.1
2018-Jun-11 04:30N 52°37' E 004°14'4 7.1
2018-Jun-11 04:00N 52°37' E 004°09'4 7.2
2018-Jun-11 03:27N 52°35' E 004°03'4 7.4
2018-Jun-11 02:55N 52°33' E 003°58'3 7.1
2018-Jun-11 02:30N 52°30' E 003°55'4 7.6
2018-Jun-11 02:00N 52°27' E 003°53'4 7.1
2018-Jun-11 01:30N 52°23' E 003°50'4 7.1
2018-Jun-11 01:00N 52°22' E 003°45'4 7.3
2018-Jun-11 00:30N 52°20' E 003°40'3 7.0
2018-Jun-11 00:00N 52°19' E 003°35'4 7.6
2018-Jun-10 23:30N 52°17' E 003°30'4 7.8
2018-Jun-10 23:00N 52°15' E 003°24'4 7.6
2018-Jun-10 22:29N 52°13' E 003°19'4 7.3
2018-Jun-10 21:59N 52°10' E 003°14'3 7.1
2018-Jun-10 21:30N 52°08' E 003°10'3 6.6
2018-Jun-10 21:00N 52°06' E 003°06'3 6.0
2018-Jun-10 20:30N 52°03' E 003°03'3 6.0
2018-Jun-10 20:00N 52°01' E 002°60'3 5.8
2018-Jun-10 19:30N 51°59' E 002°57'3 5.2
2018-Jun-10 19:00N 51°57' E 002°54'9 3.9
2018-Jun-10 16:48N 51°49' E 002°48'10 6.3
2018-Jun-10 15:18N 51°46' E 003°03'3 7.1
2018-Jun-10 14:53N 51°47' E 002°58'9 7.3
2018-Jun-10 13:35N 51°47' E 002°43'10 7.8
2018-Jun-10 12:18N 51°48' E 002°27'3 7.9
2018-Jun-10 11:57N 51°48' E 002°23'5 7.5
2018-Jun-10 11:19N 51°48' E 002°15'2 7.2
2018-Jun-10 10:59N 51°48' E 002°11'6 2.9
2018-Jun-10 08:57N 51°44' E 002°17'9 4.7
2018-Jun-10 07:03N 51°39' E 002°30'0 5.1
2018-Jun-10 06:58N 51°38' E 002°29'2 4.8
2018-Jun-10 06:30N 51°37' E 002°27'3 4.7
2018-Jun-10 05:58N 51°35' E 002°25'3 4.2
2018-Jun-10 05:21N 51°33' E 002°22'1 3.8
2018-Jun-10 04:58N 51°31' E 002°21'2 3.9
2018-Jun-10 04:30N 51°30' E 002°19'2 3.8
2018-Jun-10 03:57N 51°28' E 002°17'2 3.8
2018-Jun-10 03:30N 51°27' E 002°16'2 3.9
2018-Jun-10 03:00N 51°25' E 002°14'2 3.8
2018-Jun-10 02:28N 51°24' E 002°12'2 4.0
2018-Jun-10 02:00N 51°22' E 002°11'2 4.4
2018-Jun-10 01:30N 51°20' E 002°09'2 4.8
2018-Jun-10 01:00N 51°18' E 002°07'2 4.9
2018-Jun-10 00:30N 51°16' E 002°05'3 5.2
2018-Jun-10 00:00N 51°14' E 002°02'3 5.3
2018-Jun-09 23:30N 51°12' E 001°59'3 5.9
2018-Jun-09 23:00N 51°11' E 001°55'4 7.0
2018-Jun-09 22:29N 51°09' E 001°50'4 7.8
2018-Jun-09 22:00N 51°07' E 001°45'4 8.2
2018-Jun-09 21:30N 51°04' E 001°40'7 8.3
2018-Jun-09 20:42N 50°59' E 001°32'2 8.4
2018-Jun-09 20:28N 50°58' E 001°30'4 8.1
2018-Jun-09 20:00N 50°55' E 001°27'61 4.7
2018-Jun-09 07:14N 50°18' E 000°11'1 4.1
2018-Jun-09 06:53N 50°18' E 000°09'4 5.6
2018-Jun-09 06:13N 50°17' E 000°03'5 5.6
2018-Jun-09 05:16N 50°15' W 000°05'2 6.1
2018-Jun-09 04:57N 50°14' W 000°08'4 6.4
2018-Jun-09 04:23N 50°13' W 000°13'3 6.7
2018-Jun-09 04:00N 50°12' W 000°17'3 7.0
2018-Jun-09 03:30N 50°11' W 000°22'3 7.0
2018-Jun-09 03:00N 50°10' W 000°27'4 7.3
2018-Jun-09 02:30N 50°08' W 000°32'3 7.0
2018-Jun-09 02:00N 50°07' W 000°37'3 6.6
2018-Jun-09 01:30N 50°07' W 000°42'2 4.5
2018-Jun-09 01:00N 50°06' W 000°46'2 3.8
2018-Jun-09 00:30N 50°06' W 000°49'2 3.6
2018-Jun-09 00:00N 50°05' W 000°51'2 3.5
2018-Jun-08 23:27N 50°05' W 000°54'2 4.0
2018-Jun-08 23:00N 50°04' W 000°57'2 3.8
2018-Jun-08 22:30N 50°04' W 000°60'2 3.9
2018-Jun-08 22:00N 50°03' W 001°02'2 4.1
2018-Jun-08 21:30N 50°02' W 001°06'2 4.7
2018-Jun-08 21:00N 50°01' W 001°09'2 4.8
2018-Jun-08 20:30N 50°01' W 001°13'3 5.0
2018-Jun-08 20:00N 50°00' W 001°16'3 5.4
2018-Jun-08 19:30N 49°59' W 001°20'3 6.1
2018-Jun-08 19:00N 49°58' W 001°25'3 6.5
2018-Jun-08 18:30N 49°57' W 001°29'3 6.7
2018-Jun-08 18:00N 49°55' W 001°34'3 6.4
2018-Jun-08 17:30N 49°54' W 001°39'3 5.2
2018-Jun-08 17:00N 49°53' W 001°42'2 3.5
2018-Jun-08 16:30N 49°51' W 001°43'2 4.3
2018-Jun-08 16:00N 49°49' W 001°44'2 3.2
2018-Jun-08 15:30N 49°49' W 001°47'3 6.8
2018-Jun-08 15:00N 49°52' W 001°50'2 4.0
2018-Jun-08 14:30N 49°51' W 001°53'4 7.6
2018-Jun-08 14:00N 49°47' W 001°55'50 5.1
2018-Jun-08 04:05N 49°37' W 003°11'1 7.5
2018-Jun-08 03:59N 49°37' W 003°12'72 7.7
2018-Jun-07 18:38N 48°48' W 004°33'1 7.3
2018-Jun-07 18:30N 48°47' W 004°34'4 7.2
2018-Jun-07 18:00N 48°44' W 004°37'3 7.0
2018-Jun-07 17:30N 48°41' W 004°40'2 3.7
2018-Jun-07 17:00N 48°40' W 004°42'0 0.9
2018-Jun-07 16:30N 48°40' W 004°42'1 2.9
2018-Jun-07 16:00N 48°39' W 004°40'2 4.0
2018-Jun-07 15:30N 48°38' W 004°39'3 0.3
2018-Jun-07 06:56N 48°37' W 004°35'2 4.6
2018-Jun-07 06:31N 48°37' W 004°38'2 4.6
2018-Jun-07 06:01N 48°38' W 004°41'3 5.2
2018-Jun-07 05:31N 48°39' W 004°45'3 5.6
2018-Jun-07 05:00N 48°40' W 004°49'3 5.6
2018-Jun-07 04:31N 48°41' W 004°53'2 5.0
2018-Jun-07 04:00N 48°41' W 004°56'2 4.8
2018-Jun-07 03:31N 48°42' W 004°60'2 4.7
2018-Jun-07 03:00N 48°43' W 005°03'2 4.1
2018-Jun-07 02:31N 48°44' W 005°05'2 4.2
2018-Jun-07 02:00N 48°45' W 005°08'2 3.6
2018-Jun-07 01:29N 48°46' W 005°11'2 3.3
2018-Jun-07 01:00N 48°46' W 005°13'2 3.4
2018-Jun-07 00:27N 48°47' W 005°16'4 4.1
2018-Jun-06 23:31N 48°48' W 005°21'0 4.5
2018-Jun-06 23:26N 48°48' W 005°22'36 6.2
2018-Jun-06 17:33N 48°19' W 005°55'  

Dump ship's entire track history